createdAt,value
2019-02-02T00:09:04.581Z,28.27
2019-02-02T00:19:05.840Z,33.83
2019-02-02T00:29:07.108Z,33.70
2019-02-02T00:39:08.348Z,32.70
2019-02-02T00:49:09.600Z,32.17
2019-02-02T00:59:10.844Z,30.70
2019-02-02T01:09:12.087Z,29.50
2019-02-02T01:19:13.340Z,26.00
2019-02-02T01:29:14.596Z,23.70
2019-02-02T01:39:15.879Z,26.17
2019-02-02T01:49:17.155Z,26.17
2019-02-02T01:59:19.250Z,25.27
2019-02-02T02:09:20.513Z,28.47
2019-02-02T02:19:21.769Z,33.83
2019-02-02T02:29:23.023Z,29.27
2019-02-02T02:39:24.262Z,27.23
2019-02-02T02:49:25.527Z,27.03
2019-02-02T02:59:27.538Z,27.50
2019-02-02T03:09:29.578Z,27.03
2019-02-02T03:19:30.832Z,27.23
2019-02-02T03:29:32.098Z,25.90
2019-02-02T03:39:33.368Z,27.90
2019-02-02T03:49:34.645Z,28.20
2019-02-02T03:59:36.705Z,26.83
2019-02-02T04:09:37.964Z,27.97
2019-02-02T04:19:39.228Z,27.23
2019-02-02T04:29:40.469Z,28.63
2019-02-02T04:39:41.704Z,30.10
2019-02-02T04:49:42.953Z,29.10
2019-02-02T04:59:44.229Z,28.47
2019-02-02T05:09:46.267Z,27.20
2019-02-02T05:19:47.533Z,28.83
2019-02-02T05:29:49.562Z,28.37
2019-02-02T05:39:51.583Z,27.30
2019-02-02T05:49:52.969Z,24.00
2019-02-02T05:59:54.386Z,25.53
2019-02-02T06:09:55.657Z,27.40
2019-02-02T06:19:57.881Z,26.63
2019-02-02T06:30:04.572Z,24.70
2019-02-02T06:40:00.618Z,23.43
2019-02-02T06:50:01.916Z,23.60
2019-02-02T07:00:15.503Z,25.57
2019-02-02T07:10:07.606Z,28.50
2019-02-02T07:20:08.875Z,27.13
2019-02-02T07:30:10.148Z,27.50
2019-02-02T08:10:36.792Z,24.13
2019-02-02T08:20:38.952Z,26.17
2019-02-02T08:30:51.622Z,24.70
2019-02-02T08:40:41.532Z,24.50
2019-02-02T08:50:44.374Z,36.78
2019-02-02T09:31:15.474Z,24.90
2019-02-02T10:01:27.808Z,23.40
2019-02-02T10:11:27.333Z,22.00
2019-02-02T10:21:28.617Z,19.83
2019-02-02T10:31:39.404Z,21.87
2019-02-02T10:41:33.929Z,20.87
2019-02-02T10:51:36.028Z,20.60
2019-02-02T11:42:06.063Z,7.90
2019-02-02T11:52:11.614Z,11.07
2019-02-02T12:02:14.440Z,11.70
2019-02-02T12:22:22.083Z,6.33
2019-02-02T12:32:26.788Z,5.27
2019-02-02T12:42:24.640Z,5.00
2019-02-02T12:52:26.005Z,4.87
2019-02-02T13:02:37.892Z,5.10
2019-02-02T13:12:28.646Z,4.90
2019-02-02T13:22:34.300Z,4.70
2019-02-02T13:32:33.634Z,3.33
2019-02-02T13:42:34.898Z,3.13
2019-02-02T13:52:36.170Z,2.80
2019-02-02T14:02:37.509Z,3.23
2019-02-02T14:12:38.757Z,3.13
2019-02-02T14:22:40.009Z,3.13
2019-02-02T14:32:42.040Z,4.07
2019-02-02T14:42:44.086Z,3.47
2019-02-02T14:52:45.332Z,1.70
2019-02-02T15:02:46.573Z,1.40
2019-02-02T15:12:47.842Z,1.30
2019-02-02T15:22:49.111Z,1.40
2019-02-02T15:32:50.401Z,1.43
2019-02-02T15:42:51.657Z,1.50
2019-02-02T15:52:52.924Z,2.70
2019-02-02T16:02:54.958Z,3.00
2019-02-02T16:12:56.234Z,2.60
2019-02-02T16:22:58.274Z,2.77
2019-02-02T16:43:06.604Z,5.53
2019-02-02T17:13:22.016Z,8.33
2019-02-02T17:23:23.407Z,8.77
2019-02-02T17:33:26.561Z,10.02
2019-02-02T17:43:25.964Z,8.10
2019-02-02T17:53:27.225Z,7.83
2019-02-02T18:03:28.496Z,9.53
2019-02-02T18:13:29.753Z,9.93
2019-02-02T18:23:30.995Z,9.57
2019-02-02T18:33:33.050Z,8.53
2019-02-02T18:43:34.284Z,6.93
2019-02-02T18:53:37.629Z,8.17
2019-02-02T19:03:38.897Z,9.63
2019-02-02T19:13:40.226Z,15.40
2019-02-02T19:23:41.509Z,14.40
2019-02-02T19:33:42.795Z,16.97
2019-02-02T19:43:44.063Z,17.70
2019-02-02T19:53:45.431Z,15.10
2019-02-02T20:03:46.885Z,15.70
2019-02-02T20:13:48.235Z,14.83
2019-02-02T20:23:50.250Z,15.33
2019-02-02T20:33:52.372Z,14.63
2019-02-02T20:43:53.646Z,14.43
2019-02-02T20:53:55.662Z,13.57
2019-02-02T21:03:56.970Z,13.60
2019-02-02T21:13:58.279Z,13.43
2019-02-02T21:23:59.552Z,12.43
2019-02-02T21:34:06.768Z,14.20
2019-02-02T21:44:08.066Z,11.67
2019-02-02T21:54:09.357Z,12.73
2019-02-02T22:04:10.624Z,13.33
2019-02-02T22:14:11.894Z,11.70
2019-02-02T22:24:13.193Z,10.33
2019-02-02T22:34:14.497Z,8.87
2019-02-02T22:44:15.786Z,10.67
2019-02-02T22:54:17.095Z,12.40
2019-02-02T23:04:18.408Z,10.70
2019-02-02T23:14:19.695Z,10.70
2019-02-02T23:34:28.588Z,12.80
2019-02-02T23:44:29.865Z,13.50
2019-02-02T23:54:31.190Z,12.67
